createdAt,value
2019-04-20T00:03:15.855Z,101771.00
2019-04-20T00:08:23.174Z,101779.56
2019-04-20T00:13:33.289Z,101777.80
2019-04-20T00:18:32.813Z,101779.83
2019-04-20T00:23:43.884Z,101776.09
2019-04-20T00:29:02.682Z,101778.38
2019-04-20T00:33:59.404Z,101778.65
2019-04-20T00:38:56.911Z,101772.31
2019-04-20T00:43:57.803Z,101772.59
2019-04-20T00:49:10.996Z,101761.28
2019-04-20T00:54:05.665Z,101760.94
2019-04-20T00:59:20.690Z,101761.80
2019-04-20T01:04:34.248Z,101761.66
2019-04-20T01:09:35.538Z,101764.55
2019-04-20T01:14:43.657Z,101763.11
2019-04-20T01:19:41.574Z,101764.03
2019-04-20T01:24:48.287Z,101762.98
2019-04-20T01:29:57.644Z,101764.98
2019-04-20T01:35:14.028Z,101762.59
2019-04-20T01:40:03.006Z,101765.70
2019-04-20T01:45:10.163Z,101765.58
2019-04-20T01:50:15.362Z,101764.59
2019-04-20T01:55:40.100Z,101766.96
2019-04-20T02:00:51.266Z,101761.89
2019-04-20T02:06:01.580Z,101760.16
2019-04-20T02:11:01.927Z,101760.16
2019-04-20T02:16:11.373Z,101763.39
2019-04-20T02:21:24.566Z,101771.71
2019-04-20T02:26:09.682Z,101768.89
2019-04-20T02:32:00.411Z,101769.25
2019-04-20T02:36:58.588Z,101760.97
2019-04-20T02:47:19.481Z,101760.34
2019-04-20T02:52:02.936Z,101765.24
2019-04-20T03:01:57.637Z,101760.16
2019-04-20T03:06:59.392Z,101756.05
2019-04-20T03:12:10.627Z,101753.48
2019-04-20T03:17:15.302Z,101752.56
2019-04-20T03:22:23.395Z,101750.19
2019-04-20T03:27:19.604Z,101751.51
2019-04-20T03:37:52.474Z,101765.05
2019-04-20T03:42:34.953Z,101769.19
2019-04-20T03:47:49.703Z,101760.94
2019-04-20T03:53:08.699Z,101759.95
2019-04-20T03:58:27.676Z,101763.80
2019-04-20T04:03:41.059Z,101761.49
2019-04-20T04:08:27.703Z,101770.69
2019-04-20T04:13:21.308Z,101771.25
2019-04-20T04:18:29.855Z,101774.23
2019-04-20T04:23:44.438Z,101774.42
2019-04-20T04:28:48.959Z,101772.75
2019-04-20T04:39:03.823Z,101781.39
2019-04-20T04:44:00.402Z,101775.87
2019-04-20T04:48:51.154Z,101785.70
2019-04-20T04:54:00.073Z,101785.20
2019-04-20T04:58:56.217Z,101790.23
2019-04-20T05:04:23.313Z,101784.75
2019-04-20T05:09:08.996Z,101797.47
2019-04-20T05:14:16.847Z,101799.02
2019-04-20T05:19:37.009Z,101800.37
2019-04-20T05:24:58.018Z,101805.11
2019-04-20T05:29:44.703Z,101800.88
2019-04-20T05:35:12.311Z,101810.04
2019-04-20T05:40:20.610Z,101807.75
2019-04-20T05:45:16.501Z,101814.66
2019-04-20T05:50:23.300Z,101819.42
2019-04-20T05:55:25.681Z,101825.89
2019-04-20T06:00:37.554Z,101829.58
2019-04-20T06:05:36.407Z,101824.05
2019-04-20T06:10:38.360Z,101821.20
2019-04-20T06:15:51.740Z,101825.75
2019-04-20T06:21:00.473Z,101837.05
2019-04-20T06:26:17.196Z,101828.20
2019-04-20T06:30:55.253Z,101826.91
2019-04-20T06:41:21.591Z,101819.68
2019-04-20T06:46:16.227Z,101818.17
2019-04-20T06:51:25.008Z,101826.42
2019-04-20T06:56:33.646Z,101831.57
2019-04-20T07:01:45.061Z,101826.42
2019-04-20T07:11:42.626Z,101818.75
2019-04-20T07:17:10.749Z,101807.89
2019-04-20T07:22:30.078Z,101806.56
2019-04-20T07:27:25.891Z,101808.27
2019-04-20T07:32:23.974Z,101811.12
2019-04-20T07:38:03.315Z,101802.06
2019-04-20T07:42:49.507Z,101803.30
2019-04-20T07:52:45.022Z,101812.13
2019-04-20T07:57:52.812Z,101813.30
2019-04-20T08:03:33.281Z,101820.70
2019-04-20T08:08:28.953Z,101808.28
2019-04-20T08:13:43.577Z,101809.29
2019-04-20T08:18:44.493Z,101808.22
2019-04-20T08:23:44.542Z,101810.58
2019-04-20T08:28:43.894Z,101798.09
2019-04-20T08:34:07.714Z,101798.16
2019-04-20T08:39:23.180Z,101795.02
2019-04-20T08:44:30.934Z,101798.75
2019-04-20T08:49:17.180Z,101793.81
2019-04-20T08:54:12.000Z,101789.91
2019-04-20T08:58:59.835Z,101792.41
2019-04-20T09:04:11.280Z,101791.13
2019-04-20T09:09:37.788Z,101777.45
2019-04-20T09:14:21.361Z,101780.98
2019-04-20T09:19:36.792Z,101774.41
2019-04-20T09:24:52.803Z,101771.78
2019-04-20T09:29:40.645Z,101770.91
2019-04-20T09:34:57.011Z,101765.20
2019-04-20T09:40:21.279Z,101758.89
2019-04-20T09:45:08.269Z,101760.10
2019-04-20T09:50:27.843Z,101754.92
2019-04-20T09:55:28.845Z,101750.14
2019-04-20T10:00:38.322Z,101750.41
2019-04-20T10:05:27.170Z,101740.25
2019-04-20T10:10:38.045Z,101736.61
2019-04-20T10:15:33.523Z,101736.41
2019-04-20T10:20:38.276Z,101726.92
2019-04-20T10:25:40.403Z,101727.56
2019-04-20T10:30:42.570Z,101724.88
2019-04-20T10:35:45.570Z,101720.57
2019-04-20T10:40:57.230Z,101720.09
2019-04-20T10:45:52.979Z,101718.13
2019-04-20T10:50:56.823Z,101724.65
2019-04-20T10:55:59.155Z,101713.67
2019-04-20T11:01:01.802Z,101709.34
2019-04-20T11:06:04.836Z,101702.75
2019-04-20T11:11:14.586Z,101703.92
2019-04-20T11:16:12.532Z,101706.46
2019-04-20T11:21:15.437Z,101693.27
2019-04-20T11:26:18.143Z,101693.91
2019-04-20T11:31:20.264Z,101694.34
2019-04-20T11:36:23.221Z,101688.01
2019-04-20T11:41:29.072Z,101681.70
2019-04-20T11:46:30.479Z,101674.09
2019-04-20T11:51:33.854Z,101663.83
2019-04-20T11:56:40.417Z,101658.44
2019-04-20T12:02:03.595Z,101656.81
2019-04-20T12:07:04.637Z,101647.96
2019-04-20T12:12:21.427Z,101641.09
2019-04-20T12:17:11.501Z,101643.91
2019-04-20T12:22:13.967Z,101632.68
2019-04-20T12:27:16.665Z,101631.09
2019-04-20T12:32:19.647Z,101625.39
2019-04-20T12:37:22.945Z,101631.35
2019-04-20T12:42:25.414Z,101620.95
2019-04-20T12:47:27.891Z,101620.81
2019-04-20T12:52:30.463Z,101614.05
2019-04-20T12:57:32.559Z,101611.37
2019-04-20T13:02:35.507Z,101604.11
2019-04-20T13:07:44.333Z,101601.31
2019-04-20T13:13:02.579Z,101592.83
2019-04-20T13:18:07.429Z,101585.97
2019-04-20T13:23:10.889Z,101582.72
2019-04-20T13:28:14.730Z,101578.87
2019-04-20T13:33:17.602Z,101573.09
2019-04-20T13:38:20.315Z,101570.83
2019-04-20T13:43:23.801Z,101564.27
2019-04-20T13:48:26.737Z,101563.16
2019-04-20T13:53:29.717Z,101564.57
2019-04-20T13:59:03.819Z,101555.70
2019-04-20T14:04:18.660Z,101544.21
2019-04-20T14:09:21.534Z,101529.69
2019-04-20T14:14:23.599Z,101528.84
2019-04-20T14:19:27.274Z,101513.66
2019-04-20T14:24:30.846Z,101507.29
2019-04-20T14:29:33.048Z,101507.98
2019-04-20T14:34:35.270Z,101500.83
2019-04-20T14:39:38.335Z,101489.50
2019-04-20T14:44:41.711Z,101496.93
2019-04-20T14:49:43.992Z,101486.19
2019-04-20T14:54:46.083Z,101481.91
2019-04-20T14:59:54.013Z,101468.25
2019-04-20T15:04:56.984Z,101466.78
2019-04-20T15:10:00.633Z,101462.98
2019-04-20T15:15:04.902Z,101463.05
2019-04-20T15:20:29.760Z,101452.52
2019-04-20T15:25:31.924Z,101457.86
2019-04-20T15:30:34.219Z,101457.70
2019-04-20T15:35:37.786Z,101445.73
2019-04-20T15:40:41.373Z,101434.73
2019-04-20T15:45:43.717Z,101436.34
2019-04-20T15:50:45.865Z,101437.19
2019-04-20T15:55:49.250Z,101429.17
2019-04-20T16:00:52.782Z,101432.44
2019-04-20T16:06:01.328Z,101428.77
2019-04-20T16:11:04.933Z,101420.27
2019-04-20T16:16:09.968Z,101416.43
2019-04-20T16:21:18.267Z,101413.17
2019-04-20T16:26:23.906Z,101411.83
2019-04-20T16:31:26.870Z,101398.65
2019-04-20T16:36:30.122Z,101398.23
2019-04-20T16:41:32.762Z,101390.79
2019-04-20T16:46:36.157Z,101385.14
2019-04-20T16:51:38.867Z,101386.73
2019-04-20T16:56:42.476Z,101380.55
2019-04-20T17:01:44.843Z,101373.24
2019-04-20T17:07:05.987Z,101374.91
2019-04-20T17:12:08.276Z,101368.28
2019-04-20T17:17:11.577Z,101370.52
2019-04-20T17:22:13.955Z,101371.74
2019-04-20T17:27:51.187Z,101366.05
2019-04-20T17:32:57.880Z,101368.03
2019-04-20T17:38:00.580Z,101369.77
2019-04-20T17:43:11.162Z,101367.14
2019-04-20T17:48:18.586Z,101373.55
2019-04-20T17:53:36.751Z,101368.44
2019-04-20T17:58:29.064Z,101363.19
2019-04-20T18:04:07.570Z,101369.27
2019-04-20T18:13:39.724Z,101372.33
2019-04-20T18:19:07.756Z,101372.54
2019-04-20T18:24:13.666Z,101376.37
2019-04-20T18:29:26.755Z,101383.41
2019-04-20T18:34:27.411Z,101383.56
2019-04-20T18:39:38.699Z,101386.07
2019-04-20T18:44:55.682Z,101384.71
2019-04-20T18:49:51.392Z,101383.69
2019-04-20T18:54:48.533Z,101395.28
2019-04-20T18:59:54.519Z,101396.42
2019-04-20T19:04:54.511Z,101401.88
2019-04-20T19:10:04.289Z,101406.11
2019-04-20T19:15:52.907Z,101403.43
2019-04-20T19:20:41.260Z,101408.36
2019-04-20T19:25:44.210Z,101406.16
2019-04-20T19:30:56.287Z,101408.45
2019-04-20T19:35:59.642Z,101413.51
2019-04-20T19:41:07.078Z,101407.98
2019-04-20T19:51:25.656Z,101412.70
2019-04-20T19:56:22.478Z,101410.63
2019-04-20T20:01:11.568Z,101412.35
2019-04-20T20:06:23.749Z,101411.12
2019-04-20T20:11:26.494Z,101413.05
2019-04-20T20:16:28.916Z,101410.20
2019-04-20T20:21:38.570Z,101405.88
2019-04-20T20:26:35.190Z,101408.80
2019-04-20T20:31:55.636Z,101412.20
2019-04-20T20:36:47.172Z,101407.19
2019-04-20T20:41:56.260Z,101407.19
2019-04-20T20:46:59.158Z,101404.84
2019-04-20T20:52:14.562Z,101405.55
2019-04-20T20:57:03.716Z,101405.14
2019-04-20T21:02:06.384Z,101408.77
2019-04-20T21:07:06.703Z,101404.05
2019-04-20T21:12:14.308Z,101404.52
2019-04-20T21:17:17.909Z,101406.58
2019-04-20T21:22:32.610Z,101401.21
2019-04-20T21:27:22.290Z,101400.83
2019-04-20T21:32:26.150Z,101402.87
2019-04-20T21:37:28.938Z,101401.38
2019-04-20T21:42:40.006Z,101398.36
2019-04-20T21:47:38.382Z,101398.14
2019-04-20T21:52:45.119Z,101397.72
2019-04-20T21:57:50.174Z,101396.64
2019-04-20T22:02:56.577Z,101393.53
2019-04-20T22:07:52.541Z,101393.09
2019-04-20T22:13:00.699Z,101387.59
2019-04-20T22:18:05.448Z,101384.81
2019-04-20T22:23:15.743Z,101385.23
2019-04-20T22:28:07.062Z,101386.00
2019-04-20T22:33:22.809Z,101390.33
2019-04-20T22:38:30.892Z,101385.63
2019-04-20T22:43:36.668Z,101382.42
2019-04-20T22:48:45.019Z,101389.60
2019-04-20T22:53:49.874Z,101386.91
2019-04-20T22:58:57.605Z,101386.28
2019-04-20T23:03:50.683Z,101373.78
2019-04-20T23:08:59.564Z,101368.16
2019-04-20T23:13:58.187Z,101364.04
2019-04-20T23:19:00.405Z,101355.30
2019-04-20T23:24:09.161Z,101354.05
2019-04-20T23:29:07.161Z,101342.86
2019-04-20T23:34:15.240Z,101335.70
2019-04-20T23:39:13.245Z,101340.06
2019-04-20T23:44:19.171Z,101334.32
2019-04-20T23:49:31.768Z,101326.02
2019-04-20T23:54:34.076Z,101326.14
2019-04-20T23:59:41.142Z,101320.73
